HISTORICAL SENSOR DATA

Sensor Data Report

DB LIVE
CURRENT TIME--:--:--
DEVICE NETWORK Gateway Status
13 ESP · realtime ~1s · history 60s
Weather WS-MOD-01
ONLINE
Actuator ACT-MOD-01
OFFLINE
Mainboard L3 MB-L3-01
ONLINE
Mainboard L5 MB-L5-01
ONLINE
Remote AC AC-REMOTE-01
ONLINE
PZEM L3-01 PWR-L3-01
OFFLINE
PZEM L3-02 PWR-L3-02
OFFLINE
PZEM L3-03 PWR-L3-03
OFFLINE
PZEM L3-04 PWR-L3-04
OFFLINE
PZEM L5-01 PWR-L5-01
ONLINE
PZEM L5-02 PWR-L5-02
ONLINE
PZEM L5-03 PWR-L5-03
OFFLINE
PZEM L5-04 PWR-L5-04
OFFLINE
REPORT FILTER

Periode & Sensor

DATABASE HISTORY
RESET
QUICK RANGE Hari ini 7 hari 30 hari
PERIODE02 Sep 2026sampai 02 Sep 2026
TOTAL DATA40,278sensor readings
MINIMUM-0.50sesuai filter
AVERAGE56.78sesuai filter
MAXIMUM998.00sesuai filter
REPORT RESULT

Data Sensor

02/09/2026 — 02/09/2026 EXPORT CSV
NOTANGGALWAKTUDEVICECHANNELSENSORVALUEUNIT
12501 02/09/2026 14:54:21 MB-L3-01Mainboard Lantai 3 L3-RAD-01 Radiation 1 2.00 W/m²
12502 02/09/2026 14:54:21 MB-L5-01Mainboard Lantai 5 L5-AI-05 Analog Input 5 3.05 V
12503 02/09/2026 14:54:21 MB-L5-01Mainboard Lantai 5 L5-SHT-03-T SHT20 3 Temperature 32.20 °C
12504 02/09/2026 14:54:21 MB-L5-01Mainboard Lantai 5 L5-SHT-01-T SHT20 1 Temperature 32.40 °C
12505 02/09/2026 14:54:21 MB-L3-01Mainboard Lantai 3 L3-SHT-03-RH SHT20 3 Humidity 49.10 %RH
12506 02/09/2026 14:54:19 MB-L3-01Mainboard Lantai 3 L3-AI-06 Analog Input 6 3.12 V
12507 02/09/2026 14:54:19 MB-L3-01Mainboard Lantai 3 L3-LUX-05 Illuminance / LUX 5 79.10 lux
12508 02/09/2026 14:54:19 MB-L3-01Mainboard Lantai 3 L3-LUX-06 Illuminance / LUX 6 44.90 lux
12509 02/09/2026 14:54:19 MB-L3-01Mainboard Lantai 3 L3-AI-01 Analog Input 1 3.12 V
12510 02/09/2026 14:54:19 MB-L5-01Mainboard Lantai 5 L5-BGT-03 Black Globe Temperature 3 30.10 °C
12511 02/09/2026 14:54:19 MB-L3-01Mainboard Lantai 3 L3-HFT-01 Heat Flow Temperature 1 29.70 °C
12512 02/09/2026 14:54:19 MB-L5-01Mainboard Lantai 5 L5-LUX-03 Illuminance / LUX 3 218.30 lux
12513 02/09/2026 14:54:19 MB-L5-01Mainboard Lantai 5 L5-BGT-02 Black Globe Temperature 2 29.90 °C
12514 02/09/2026 14:54:19 MB-L5-01Mainboard Lantai 5 L5-LUX-05 Illuminance / LUX 5 617.20 lux
12515 02/09/2026 14:54:19 MB-L5-01Mainboard Lantai 5 L5-BGT-01 Black Globe Temperature 1 29.90 °C
12516 02/09/2026 14:54:19 MB-L3-01Mainboard Lantai 3 L3-AI-02 Analog Input 2 3.12 V
12517 02/09/2026 14:54:19 MB-L3-01Mainboard Lantai 3 L3-LUX-04 Illuminance / LUX 4 120.00 lux
12518 02/09/2026 14:54:19 MB-L5-01Mainboard Lantai 5 L5-HFT-02 Heat Flow Temperature 2 30.20 °C
12519 02/09/2026 14:54:19 MB-L5-01Mainboard Lantai 5 L5-SHT-01-RH SHT20 1 Humidity 48.30 %RH
12520 02/09/2026 14:54:19 MB-L3-01Mainboard Lantai 3 L3-HFT-02 Heat Flow Temperature 2 29.10 °C
12521 02/09/2026 14:54:19 MB-L3-01Mainboard Lantai 3 L3-SHT-01-T SHT20 1 Temperature 32.10 °C
12522 02/09/2026 14:54:19 MB-L5-01Mainboard Lantai 5 L5-HFT-01 Heat Flow Temperature 1 30.50 °C
12523 02/09/2026 14:54:19 MB-L5-01Mainboard Lantai 5 L5-LUX-01 Illuminance / LUX 1 287.30 lux
12524 02/09/2026 14:54:19 MB-L5-01Mainboard Lantai 5 L5-LUX-06 Illuminance / LUX 6 311.60 lux
12525 02/09/2026 14:54:19 MB-L5-01Mainboard Lantai 5 L5-ST-02 Surface Temperature 2 30.70 °C
12526 02/09/2026 14:54:19 MB-L3-01Mainboard Lantai 3 L3-LUX-02 Illuminance / LUX 2 72.10 lux
12527 02/09/2026 14:54:19 MB-L3-01Mainboard Lantai 3 L3-SHT-01-RH SHT20 1 Humidity 48.30 %RH
12528 02/09/2026 14:54:19 MB-L3-01Mainboard Lantai 3 L3-AI-03 Analog Input 3 3.12 V
12529 02/09/2026 14:54:19 MB-L5-01Mainboard Lantai 5 L5-LUX-02 Illuminance / LUX 2 271.60 lux
12530 02/09/2026 14:54:19 MB-L5-01Mainboard Lantai 5 L5-ST-01 Surface Temperature 1 30.40 °C
12531 02/09/2026 14:54:19 MB-L3-01Mainboard Lantai 3 L3-SHT-02-RH SHT20 2 Humidity 48.30 %RH
12532 02/09/2026 14:54:19 MB-L3-01Mainboard Lantai 3 L3-BGT-01 Black Globe Temperature 1 29.80 °C
12533 02/09/2026 14:54:19 MB-L5-01Mainboard Lantai 5 L5-RAD-02 Radiation 2 2.00 W/m²
12534 02/09/2026 14:54:19 MB-L3-01Mainboard Lantai 3 L3-LUX-01 Illuminance / LUX 1 55.50 lux
12535 02/09/2026 14:54:19 MB-L3-01Mainboard Lantai 3 L3-RAD-02 Radiation 2 2.00 W/m²
12536 02/09/2026 14:54:19 MB-L5-01Mainboard Lantai 5 L5-AI-06 Analog Input 6 3.05 V
12537 02/09/2026 14:54:19 MB-L3-01Mainboard Lantai 3 L3-LUX-03 Illuminance / LUX 3 162.40 lux
12538 02/09/2026 14:54:19 MB-L5-01Mainboard Lantai 5 L5-SHT-02-RH SHT20 2 Humidity 48.30 %RH
12539 02/09/2026 14:54:19 MB-L3-01Mainboard Lantai 3 L3-AI-04 Analog Input 4 3.12 V
12540 02/09/2026 14:54:19 MB-L5-01Mainboard Lantai 5 L5-LUX-04 Illuminance / LUX 4 303.90 lux
12541 02/09/2026 14:54:19 MB-L3-01Mainboard Lantai 3 L3-BGT-02 Black Globe Temperature 2 29.90 °C
12542 02/09/2026 14:54:19 MB-L3-01Mainboard Lantai 3 L3-RAD-01 Radiation 1 2.00 W/m²
12543 02/09/2026 14:54:19 MB-L5-01Mainboard Lantai 5 L5-AI-05 Analog Input 5 3.05 V
12544 02/09/2026 14:54:19 MB-L5-01Mainboard Lantai 5 L5-SHT-03-T SHT20 3 Temperature 32.20 °C
12545 02/09/2026 14:54:19 MB-L5-01Mainboard Lantai 5 L5-SHT-01-T SHT20 1 Temperature 32.30 °C
12546 02/09/2026 14:54:19 MB-L3-01Mainboard Lantai 3 L3-SHT-03-RH SHT20 3 Humidity 49.20 %RH
12547 02/09/2026 14:54:19 MB-L5-01Mainboard Lantai 5 L5-SHT-02-T SHT20 2 Temperature 32.20 °C
12548 02/09/2026 14:54:19 MB-L5-01Mainboard Lantai 5 L5-SHT-03-RH SHT20 3 Humidity 48.80 %RH
12549 02/09/2026 14:54:19 MB-L5-01Mainboard Lantai 5 L5-AI-04 Analog Input 4 3.05 V
12550 02/09/2026 14:54:19 MB-L3-01Mainboard Lantai 3 L3-ST-01 Surface Temperature 1 30.00 °C
12551 02/09/2026 14:54:19 MB-L3-01Mainboard Lantai 3 L3-AI-05 Analog Input 5 3.12 V
12552 02/09/2026 14:54:19 MB-L3-01Mainboard Lantai 3 L3-SHT-03-T SHT20 3 Temperature 31.90 °C
12553 02/09/2026 14:54:19 MB-L5-01Mainboard Lantai 5 L5-RAD-01 Radiation 1 2.00 W/m²
12554 02/09/2026 14:54:19 MB-L5-01Mainboard Lantai 5 L5-AI-03 Analog Input 3 3.05 V
12555 02/09/2026 14:54:19 MB-L3-01Mainboard Lantai 3 L3-SHT-02-T SHT20 2 Temperature 32.10 °C
12556 02/09/2026 14:54:19 MB-L5-01Mainboard Lantai 5 L5-AI-02 Analog Input 2 3.05 V
12557 02/09/2026 14:54:19 MB-L3-01Mainboard Lantai 3 L3-BGT-03 Black Globe Temperature 3 29.40 °C
12558 02/09/2026 14:54:19 MB-L5-01Mainboard Lantai 5 L5-AI-01 Analog Input 1 3.05 V
12559 02/09/2026 14:54:19 MB-L3-01Mainboard Lantai 3 L3-ST-02 Surface Temperature 2 30.20 °C
12560 02/09/2026 14:54:17 MB-L5-01Mainboard Lantai 5 L5-BGT-01 Black Globe Temperature 1 29.90 °C
12561 02/09/2026 14:54:17 MB-L3-01Mainboard Lantai 3 L3-AI-02 Analog Input 2 3.12 V
12562 02/09/2026 14:54:17 MB-L3-01Mainboard Lantai 3 L3-LUX-04 Illuminance / LUX 4 120.00 lux
12563 02/09/2026 14:54:17 MB-L5-01Mainboard Lantai 5 L5-HFT-02 Heat Flow Temperature 2 30.30 °C
12564 02/09/2026 14:54:17 MB-L5-01Mainboard Lantai 5 L5-SHT-01-RH SHT20 1 Humidity 48.40 %RH
12565 02/09/2026 14:54:17 MB-L3-01Mainboard Lantai 3 L3-HFT-02 Heat Flow Temperature 2 29.20 °C
12566 02/09/2026 14:54:17 MB-L3-01Mainboard Lantai 3 L3-SHT-01-T SHT20 1 Temperature 32.10 °C
12567 02/09/2026 14:54:17 MB-L5-01Mainboard Lantai 5 L5-HFT-01 Heat Flow Temperature 1 30.40 °C
12568 02/09/2026 14:54:17 MB-L5-01Mainboard Lantai 5 L5-LUX-01 Illuminance / LUX 1 285.00 lux
12569 02/09/2026 14:54:17 MB-L5-01Mainboard Lantai 5 L5-LUX-06 Illuminance / LUX 6 312.20 lux
12570 02/09/2026 14:54:17 MB-L5-01Mainboard Lantai 5 L5-ST-02 Surface Temperature 2 30.60 °C
12571 02/09/2026 14:54:17 MB-L3-01Mainboard Lantai 3 L3-LUX-02 Illuminance / LUX 2 66.20 lux
12572 02/09/2026 14:54:17 MB-L3-01Mainboard Lantai 3 L3-SHT-01-RH SHT20 1 Humidity 48.40 %RH
12573 02/09/2026 14:54:17 MB-L3-01Mainboard Lantai 3 L3-AI-03 Analog Input 3 3.12 V
12574 02/09/2026 14:54:17 MB-L5-01Mainboard Lantai 5 L5-LUX-02 Illuminance / LUX 2 193.80 lux
12575 02/09/2026 14:54:17 MB-L5-01Mainboard Lantai 5 L5-ST-01 Surface Temperature 1 30.40 °C
12576 02/09/2026 14:54:17 MB-L3-01Mainboard Lantai 3 L3-SHT-02-RH SHT20 2 Humidity 48.30 %RH
12577 02/09/2026 14:54:17 MB-L3-01Mainboard Lantai 3 L3-BGT-01 Black Globe Temperature 1 29.90 °C
12578 02/09/2026 14:54:17 MB-L5-01Mainboard Lantai 5 L5-RAD-02 Radiation 2 2.00 W/m²
12579 02/09/2026 14:54:17 MB-L3-01Mainboard Lantai 3 L3-LUX-01 Illuminance / LUX 1 44.30 lux
12580 02/09/2026 14:54:17 MB-L3-01Mainboard Lantai 3 L3-RAD-02 Radiation 2 2.00 W/m²
12581 02/09/2026 14:54:17 MB-L5-01Mainboard Lantai 5 L5-AI-06 Analog Input 6 3.05 V
12582 02/09/2026 14:54:17 MB-L3-01Mainboard Lantai 3 L3-LUX-03 Illuminance / LUX 3 145.80 lux
12583 02/09/2026 14:54:17 MB-L5-01Mainboard Lantai 5 L5-SHT-02-RH SHT20 2 Humidity 48.10 %RH
12584 02/09/2026 14:54:17 MB-L3-01Mainboard Lantai 3 L3-AI-04 Analog Input 4 3.12 V
12585 02/09/2026 14:54:17 MB-L5-01Mainboard Lantai 5 L5-LUX-04 Illuminance / LUX 4 291.90 lux
12586 02/09/2026 14:54:17 MB-L3-01Mainboard Lantai 3 L3-BGT-02 Black Globe Temperature 2 29.90 °C
12587 02/09/2026 14:54:17 MB-L3-01Mainboard Lantai 3 L3-RAD-01 Radiation 1 2.00 W/m²
12588 02/09/2026 14:54:17 MB-L5-01Mainboard Lantai 5 L5-AI-05 Analog Input 5 3.05 V
12589 02/09/2026 14:54:17 MB-L5-01Mainboard Lantai 5 L5-SHT-03-T SHT20 3 Temperature 32.20 °C
12590 02/09/2026 14:54:17 MB-L5-01Mainboard Lantai 5 L5-SHT-01-T SHT20 1 Temperature 32.40 °C
12591 02/09/2026 14:54:17 MB-L3-01Mainboard Lantai 3 L3-SHT-03-RH SHT20 3 Humidity 49.10 %RH
12592 02/09/2026 14:54:17 MB-L5-01Mainboard Lantai 5 L5-SHT-02-T SHT20 2 Temperature 32.20 °C
12593 02/09/2026 14:54:17 MB-L5-01Mainboard Lantai 5 L5-SHT-03-RH SHT20 3 Humidity 48.70 %RH
12594 02/09/2026 14:54:17 MB-L5-01Mainboard Lantai 5 L5-AI-04 Analog Input 4 3.05 V
12595 02/09/2026 14:54:17 MB-L3-01Mainboard Lantai 3 L3-ST-01 Surface Temperature 1 30.00 °C
12596 02/09/2026 14:54:17 MB-L3-01Mainboard Lantai 3 L3-AI-05 Analog Input 5 3.12 V
12597 02/09/2026 14:54:17 MB-L3-01Mainboard Lantai 3 L3-SHT-03-T SHT20 3 Temperature 31.80 °C
12598 02/09/2026 14:54:17 MB-L5-01Mainboard Lantai 5 L5-RAD-01 Radiation 1 2.00 W/m²
12599 02/09/2026 14:54:17 MB-L5-01Mainboard Lantai 5 L5-AI-03 Analog Input 3 3.05 V
12600 02/09/2026 14:54:17 MB-L3-01Mainboard Lantai 3 L3-SHT-02-T SHT20 2 Temperature 32.00 °C
Menampilkan maksimal 100 data per halaman